Time;durP1;ratioP1;P1;durP2;ratioP2;P2;SDS_P1;SDS_P2;PMS_P1;PMS_P2;Temp;Humidity;BMP_temperature;BMP_pressure;BME280_temperature;BME280_humidity;BME280_pressure;Samples;Min_cycle;Max_cycle;Signal;HPM_P1;HPM_P2
2022/04/14 00:05:24;;;;;;;10.07;5.00;;;13.60;74.70;;;;;;20837478;28;20232;-65
2022/04/14 00:15:26;;;;;;;7.63;4.83;;;13.50;75.40;;;;;;20837627;28;20615;-66
2022/04/14 00:25:27;;;;;;;7.40;4.77;;;13.50;75.50;;;;;;20836648;28;20228;-65
2022/04/14 00:35:29;;;;;;;7.37;5.07;;;13.40;76.30;;;;;;20835575;28;20232;-65
2022/04/14 00:45:31;;;;;;;9.87;5.27;;;13.20;76.00;;;;;;20835086;28;20236;-63
2022/04/14 00:55:32;;;;;;;11.60;5.30;;;13.30;76.80;;;;;;20834590;28;20305;-64
2022/04/14 01:05:34;;;;;;;11.47;5.37;;;13.10;76.60;;;;;;20832447;28;20268;-66
2022/04/14 01:15:36;;;;;;;9.63;5.37;;;13.10;77.70;;;;;;20832438;28;20212;-68
2022/04/14 01:25:38;;;;;;;11.30;5.40;;;13.00;77.90;;;;;;20831392;28;20259;-65
2022/04/14 01:35:40;;;;;;;8.83;5.23;;;12.80;78.40;;;;;;20833356;28;20207;-62
2022/04/14 01:45:46;;;;;;;10.67;5.40;;;12.70;78.70;;;;;;20833344;28;20768;-66
2022/04/14 01:55:48;;;;;;;8.73;5.60;;;12.50;80.10;;;;;;20830106;28;20233;-66
2022/04/14 02:05:50;;;;;;;6.80;4.97;;;12.30;80.20;;;;;;20828143;28;20233;-65
2022/04/14 02:15:51;;;;;;;9.87;5.13;;;12.10;81.30;;;;;;20829056;28;20267;-65
2022/04/14 02:25:53;;;;;;;9.50;4.97;;;12.10;82.00;;;;;;20828934;28;20644;-66
2022/04/14 02:35:55;;;;;;;10.63;5.20;;;12.10;82.80;;;;;;20841201;28;20210;-65
2022/04/14 02:45:58;;;;;;;12.70;5.33;;;11.90;82.40;;;;;;20844002;28;20233;-63
2022/04/14 02:56:00;;;;;;;11.67;6.30;;;11.90;82.70;;;;;;20843805;28;20241;-62
2022/04/14 03:06:03;;;;;;;7.40;4.80;;;11.80;82.90;;;;;;20842605;28;20237;-64
2022/04/14 03:16:04;;;;;;;9.60;5.33;;;11.50;83.70;;;;;;20842374;28;20619;-68
2022/04/14 03:26:08;;;;;;;17.10;6.10;;;11.50;83.90;;;;;;20841533;28;20592;-64
2022/04/14 03:36:10;;;;;;;9.93;5.07;;;11.50;84.90;;;;;;20840381;28;20262;-64
2022/04/14 03:46:14;;;;;;;7.47;5.23;;;11.50;84.50;;;;;;20838684;28;20264;-68
2022/04/14 03:56:16;;;;;;;8.63;5.37;;;11.40;85.40;;;;;;20838996;28;20236;-67
2022/04/14 04:06:18;;;;;;;9.50;5.67;;;11.30;85.80;;;;;;20838209;28;20568;-69
2022/04/14 04:16:19;;;;;;;10.07;6.10;;;11.20;85.80;;;;;;20846762;28;20216;-63
2022/04/14 04:26:21;;;;;;;8.37;5.57;;;11.20;86.10;;;;;;20840529;28;20647;-61
2022/04/14 04:36:23;;;;;;;11.67;5.70;;;11.00;86.30;;;;;;20838079;28;20266;-61
2022/04/14 04:46:25;;;;;;;8.90;5.80;;;11.00;86.60;;;;;;20835164;28;20247;-66
2022/04/14 04:56:27;;;;;;;16.63;6.20;;;11.00;87.20;;;;;;20834427;28;20737;-63
2022/04/14 05:06:28;;;;;;;20.20;7.47;;;11.10;87.10;;;;;;20833470;28;20236;-63
2022/04/14 05:16:30;;;;;;;15.57;6.30;;;11.20;87.20;;;;;;20838718;28;20227;-63
2022/04/14 05:26:32;;;;;;;44.77;7.90;;;11.40;87.30;;;;;;20914327;28;20236;-63
2022/04/14 05:36:33;;;;;;;23.90;7.30;;;11.40;87.90;;;;;;20912810;28;20208;-62
2022/04/14 05:46:35;;;;;;;20.70;6.87;;;11.70;87.50;;;;;;20912344;28;20272;-64
2022/04/14 05:56:37;;;;;;;18.23;6.70;;;11.80;87.60;;;;;;20911964;28;20230;-63
2022/04/14 06:06:39;;;;;;;26.43;7.03;;;12.00;87.90;;;;;;20912376;28;20286;-62
2022/04/14 06:16:41;;;;;;;32.63;9.00;;;12.30;88.10;;;;;;20914547;28;20319;-65
2022/04/14 06:29:27;;;;;;;24.87;8.77;;;12.50;87.70;;;;;;20982683;28;20568;-67
2022/04/14 06:39:29;;;;;;;13.97;6.90;;;12.80;87.60;;;;;;20981252;28;20269;-63
2022/04/14 06:49:33;;;;;;;20.10;7.60;;;13.20;87.40;;;;;;20980444;28;20297;-64
2022/04/14 06:59:35;;;;;;;29.67;8.27;;;13.70;87.30;;;;;;20980499;28;20216;-67
2022/04/14 07:09:37;;;;;;;15.83;8.60;;;14.00;87.60;;;;;;20979047;28;20220;-64
2022/04/14 07:19:39;;;;;;;18.23;9.23;;;14.20;87.60;;;;;;20974488;28;20207;-66
2022/04/14 07:29:41;;;;;;;24.37;9.73;;;14.60;88.00;;;;;;20975379;28;20228;-67
2022/04/14 07:39:43;;;;;;;43.63;27.47;;;15.00;88.90;;;;;;20926677;28;20209;-68
2022/04/14 07:49:46;;;;;;;25.47;15.87;;;15.50;88.80;;;;;;20928060;28;20206;-65
2022/04/14 07:59:48;;;;;;;23.77;16.23;;;16.00;88.60;;;;;;20920672;28;20258;-66
2022/04/14 08:09:50;;;;;;;20.77;9.77;;;16.20;88.30;;;;;;20919944;28;20615;-66
2022/04/14 08:19:52;;;;;;;24.27;14.87;;;16.80;86.80;;;;;;20915518;28;20243;-68
2022/04/14 08:29:53;;;;;;;24.27;17.20;;;17.10;85.70;;;;;;20917853;28;20576;-66
2022/04/14 08:39:57;;;;;;;18.47;12.83;;;17.20;85.80;;;;;;20917634;28;20236;-68
2022/04/14 08:50:00;;;;;;;16.63;12.37;;;17.60;83.00;;;;;;20912647;28;20205;-66
2022/04/14 09:00:08;;;;;;;20.50;12.13;;;17.80;82.30;;;;;;20914225;28;20254;-69
2022/04/14 09:10:10;;;;;;;20.97;14.00;;;17.90;82.90;;;;;;20916070;28;20213;-65
2022/04/14 09:20:34;;;;;;;25.33;14.10;;;18.10;82.30;;;;;;20914559;28;20275;-65
2022/04/14 09:31:04;;;;;;;17.83;14.07;;;18.50;81.10;;;;;;20918932;28;20577;-64
2022/04/14 09:41:37;;;;;;;21.50;13.27;;;18.50;81.50;;;;;;20913344;28;20237;-65
2022/04/14 09:51:44;;;;;;;21.40;14.47;;;18.70;80.70;;;;;;20911536;28;20297;-65
2022/04/14 10:01:47;;;;;;;21.20;13.73;;;19.00;79.00;;;;;;20911082;28;20241;-65
2022/04/14 10:11:49;;;;;;;24.53;14.47;;;19.10;78.00;;;;;;20914653;28;20658;-67
2022/04/14 10:21:52;;;;;;;27.10;15.77;;;19.30;76.60;;;;;;20913809;28;20250;-66
2022/04/14 10:31:55;;;;;;;14.77;11.67;;;19.50;75.50;;;;;;20910380;28;20751;-66
2022/04/14 10:41:59;;;;;;;20.90;13.37;;;19.70;74.40;;;;;;20910282;28;20231;-67
2022/04/14 10:52:24;;;;;;;19.50;12.10;;;19.80;72.60;;;;;;20908864;28;20245;-68
2022/04/14 11:03:02;;;;;;;17.03;11.40;;;19.90;72.30;;;;;;20908526;28;20233;-69
2022/04/14 11:13:04;;;;;;;18.07;12.20;;;20.20;71.70;;;;;;20919189;28;20204;-67
2022/04/14 11:23:26;;;;;;;17.23;12.43;;;20.30;70.60;;;;;;20923703;28;20342;-67
2022/04/14 11:33:31;;;;;;;20.80;13.53;;;20.40;69.80;;;;;;20922817;28;20215;-65
2022/04/14 11:43:34;;;;;;;22.53;12.20;;;20.60;69.50;;;;;;20921306;28;20667;-64
2022/04/14 11:53:45;;;;;;;13.80;10.30;;;20.70;69.60;;;;;;20921019;28;20246;-64
2022/04/14 12:04:07;;;;;;;14.47;10.43;;;21.40;67.70;;;;;;20920406;28;20285;-63
2022/04/14 12:14:09;;;;;;;16.30;10.53;;;21.70;66.20;;;;;;20921014;28;20211;-65
2022/04/14 12:24:11;;;;;;;16.47;10.33;;;22.00;65.80;;;;;;20916197;28;20254;-66
2022/04/14 12:34:13;;;;;;;12.87;9.93;;;22.00;65.50;;;;;;20917027;28;20207;-69
2022/04/14 12:44:43;;;;;;;13.67;8.83;;;22.70;63.70;;;;;;20916892;28;20227;-68
2022/04/14 12:54:46;;;;;;;15.93;8.77;;;22.70;63.90;;;;;;20916183;28;20208;-67
2022/04/14 13:04:48;;;;;;;19.43;9.93;;;22.80;62.80;;;;;;20915085;28;20265;-68
2022/04/14 13:14:49;;;;;;;11.00;8.13;;;22.50;62.20;;;;;;20913970;28;20599;-70
2022/04/14 13:25:05;;;;;;;11.13;7.67;;;22.50;63.00;;;;;;20914279;28;20272;-68
2022/04/14 13:35:07;;;;;;;13.57;7.83;;;22.10;63.10;;;;;;20911924;28;20648;-68
2022/04/14 13:45:10;;;;;;;12.10;8.70;;;21.70;63.20;;;;;;20912142;28;20314;-70
2022/04/14 13:55:13;;;;;;;14.40;8.20;;;21.80;63.30;;;;;;20916076;28;20965;-68
2022/04/14 14:05:15;;;;;;;11.80;8.10;;;22.20;63.50;;;;;;20914803;28;20235;-66
2022/04/14 14:15:16;;;;;;;14.17;8.67;;;22.80;61.50;;;;;;20911012;28;20675;-67
2022/04/14 14:25:18;;;;;;;14.80;11.43;;;22.70;62.60;;;;;;20908694;28;20247;-68
2022/04/14 14:35:20;;;;;;;13.77;9.87;;;22.40;63.10;;;;;;20907252;28;20201;-68
2022/04/14 14:45:22;;;;;;;12.53;5.10;;;22.20;64.80;;;;;;20914700;28;20235;-67
2022/04/14 14:55:24;;;;;;;10.87;6.43;;;24.10;63.70;;;;;;20926702;28;20683;-68
2022/04/14 15:05:27;;;;;;;15.50;7.27;;;24.00;62.00;;;;;;20925945;28;20235;-68
2022/04/14 15:15:29;;;;;;;10.23;5.80;;;23.20;62.80;;;;;;20924997;28;20203;-68
2022/04/14 15:25:34;;;;;;;9.67;5.13;;;21.50;65.00;;;;;;20924334;28;20246;-67
2022/04/14 15:35:36;;;;;;;5.97;3.90;;;21.20;65.70;;;;;;20925042;28;20233;-67
2022/04/14 15:45:38;;;;;;;11.73;4.23;;;20.20;67.20;;;;;;20922775;28;20242;-67
2022/04/14 15:55:39;;;;;;;8.17;3.77;;;20.00;68.10;;;;;;20922064;28;20209;-67
2022/04/14 16:05:42;;;;;;;9.50;4.20;;;19.40;70.30;;;;;;20971803;28;20574;-69
2022/04/14 16:15:44;;;;;;;7.97;3.07;;;19.00;71.30;;;;;;20934155;28;20788;-67
2022/04/14 16:25:46;;;;;;;12.73;6.73;;;18.80;71.40;;;;;;20929488;28;20254;-65
2022/04/14 16:35:49;;;;;;;4.73;1.50;;;18.60;71.10;;;;;;20954215;28;20197;-68
2022/04/14 16:45:50;;;;;;;11.37;2.50;;;18.20;72.90;;;;;;20968382;28;20238;-68
2022/04/14 16:55:52;;;;;;;16.70;5.00;;;17.30;79.80;;;;;;21000454;28;20207;-66
2022/04/14 17:05:54;;;;;;;8.10;3.70;;;17.00;85.50;;;;;;20998502;28;20231;-67
2022/04/14 17:15:56;;;;;;;6.57;3.20;;;16.80;90.20;;;;;;20998480;28;20204;-68
2022/04/14 17:25:58;;;;;;;29.73;19.60;;;16.90;90.80;;;;;;20969056;28;20238;-64
2022/04/14 17:35:59;;;;;;;10.80;6.37;;;16.80;91.40;;;;;;20914305;28;20256;-70
2022/04/14 17:46:01;;;;;;;4.43;2.50;;;16.60;92.30;;;;;;20913676;28;20318;-66
2022/04/14 17:56:03;;;;;;;5.93;2.20;;;16.60;92.60;;;;;;20913512;28;20575;-64
2022/04/14 18:06:05;;;;;;;5.33;3.00;;;16.50;93.10;;;;;;20912451;28;20234;-66
2022/04/14 18:16:06;;;;;;;4.33;3.00;;;16.50;93.70;;;;;;20912170;28;20355;-69
2022/04/14 18:26:08;;;;;;;5.90;3.20;;;16.30;94.10;;;;;;20910390;28;20250;-71
2022/04/14 18:36:10;;;;;;;11.00;5.27;;;16.40;94.50;;;;;;20911403;28;20203;-70
2022/04/14 18:46:12;;;;;;;6.13;4.00;;;16.40;95.00;;;;;;20911207;28;20294;-69
2022/04/14 18:56:14;;;;;;;5.50;3.50;;;16.30;95.60;;;;;;20909666;28;20206;-66
2022/04/14 19:06:15;;;;;;;7.20;3.53;;;16.30;95.90;;;;;;20913822;28;20245;-64
2022/04/14 19:16:17;;;;;;;6.20;3.53;;;16.10;95.90;;;;;;20907241;28;20213;-69
2022/04/14 19:26:19;;;;;;;6.00;3.87;;;16.10;96.10;;;;;;20907139;28;20238;-71
2022/04/14 19:36:26;;;;;;;7.17;4.97;;;16.00;96.60;;;;;;20919742;28;20262;-69
2022/04/14 19:46:28;;;;;;;9.90;4.97;;;15.90;96.60;;;;;;20920211;28;20558;-66
2022/04/14 19:56:30;;;;;;;8.97;4.60;;;15.80;97.00;;;;;;20919891;28;20212;-68
2022/04/14 20:15:13;;;;;;;7.73;5.43;;;15.70;97.40;;;;;;21064677;28;20284;-67
2022/04/14 20:25:15;;;;;;;8.27;5.13;;;15.60;98.10;;;;;;21051577;28;20257;-66
2022/04/14 20:35:17;;;;;;;11.70;5.50;;;15.50;98.00;;;;;;21026913;28;20213;-67
2022/04/14 20:45:18;;;;;;;8.60;5.77;;;15.50;98.20;;;;;;21018654;28;20203;-66
2022/04/14 20:55:20;;;;;;;9.07;6.27;;;15.30;98.30;;;;;;20977686;28;20218;-64
2022/04/14 21:05:22;;;;;;;8.77;5.77;;;15.30;98.30;;;;;;20978929;28;20302;-66
2022/04/14 21:15:24;;;;;;;8.93;6.03;;;15.20;98.70;;;;;;21059987;28;20217;-65
2022/04/14 21:25:26;;;;;;;11.13;5.80;;;15.30;98.60;;;;;;21010326;28;20729;-67
2022/04/14 21:35:27;;;;;;;10.20;5.10;;;15.00;98.80;;;;;;21001116;28;20206;-67
2022/04/14 21:45:33;;;;;;;7.33;5.30;;;14.90;99.10;;;;;;21001727;28;20265;-67
2022/04/14 21:55:35;;;;;;;9.77;5.60;;;14.90;99.10;;;;;;21005893;28;20222;-67
2022/04/14 22:05:37;;;;;;;9.10;5.77;;;14.90;99.40;;;;;;21028697;28;20250;-67
2022/04/14 22:15:39;;;;;;;9.00;6.10;;;14.90;99.40;;;;;;21004689;28;20586;-66
2022/04/14 22:25:42;;;;;;;7.60;5.30;;;14.90;99.60;;;;;;21000327;28;20227;-67
2022/04/14 22:35:44;;;;;;;10.23;5.37;;;14.80;99.60;;;;;;20999632;28;20392;-66
2022/04/14 22:45:46;;;;;;;8.43;5.03;;;14.70;99.60;;;;;;20999806;28;20225;-67
2022/04/14 22:55:48;;;;;;;7.57;5.67;;;14.60;99.90;;;;;;20999330;28;20202;-67
2022/04/14 23:05:50;;;;;;;8.53;5.50;;;14.50;99.90;;;;;;20997760;28;20244;-65
2022/04/14 23:15:53;;;;;;;9.63;5.47;;;14.40;99.80;;;;;;20997436;28;20210;-68
2022/04/14 23:25:56;;;;;;;9.83;5.10;;;14.30;99.90;;;;;;20997023;28;20298;-65
2022/04/14 23:35:57;;;;;;;7.53;6.07;;;14.10;99.90;;;;;;20996513;28;20210;-64
2022/04/14 23:46:00;;;;;;;7.03;5.40;;;14.00;99.90;;;;;;20995321;28;20230;-66
2022/04/14 23:56:02;;;;;;;10.17;6.40;;;13.70;99.90;;;;;;20995176;28;20210;-65
